Kezdőlap
METAR-TAF:

METAR-TAF

Repülőterek :

Pakse, Laosz

földrajzi szélesség: 15-08-02N, földrajzi hosszúság: 105-46-55E, magasság: 107 m

Jelenlegi meteorológiai megfigyelések

A jelentés 28 perccel ezelõtt készült, 02:00 UTC
Keleti szél 6 kt
Hőmérséklet 27°C
Páratartalom 89%
Légköri nyomás 1005 hPa
Látótávolság: 5000 m
Szórványos felhőzet 1700 lábon
Szakadozott felhőzet 5000 lábon
a közelben, esõ,

METAR: VLPS 220200Z 09006KT 5000 VCRA SCT017 BKN050 27/25 Q1005 VCRA/N NOSIG

Idő: 09:28 (02:28 UTC)

Előrejelzés

A jelentés 3 órával és 28 perccel ezelõtt készült, 23:00 UTC
Az előrejelzés 22-én 00 óra UTC és 22-én 24 óra UTC között érvényes
Délkeleti szél 4 kt
Látótávolság 10 km, vagy több
Kevés felhő 2000 lábon
Szórványos felhőzet 5000 lábon

TAF: VLPS 212300Z 2200/2224 14004KT 9999 FEW020 SCT050

Meteorológiai megfigyelések és előrejelzések több, mint 4000 repülőtéren (METAR és TAF jelentéseket).

A térképen piros és sárga pontok jelzik az elérhető meteorológiai állomásokat.

Mozgassa az egeret a pont fölött, hogy megjelenjen az állomás neve.

Azután kattintson az időjárási megfigyelések és előrejelzések megtekintéséhez.

A térkép megváltoztatása: kattintson a fekete keresztel jelölt zöld gombra ráközelítéshez, a vonallal jelölt zöld gombra távolításhoz, vagy a zöld nyilakra a szomszédos térképek eléréséhez.


METAR-TAF: